createdAt,value
2022-08-08T00:02:03.135Z,18.77
2022-08-08T00:04:27.955Z,18.77
2022-08-08T00:07:12.512Z,18.72
2022-08-08T00:09:46.604Z,18.71
2022-08-08T00:12:25.201Z,18.71
2022-08-08T00:15:05.203Z,18.70
2022-08-08T00:17:58.753Z,18.69
2022-08-08T00:20:37.379Z,18.65
2022-08-08T00:23:09.454Z,18.65
2022-08-08T00:25:46.515Z,18.59
2022-08-08T00:28:35.666Z,18.59
2022-08-08T00:32:20.944Z,18.53
2022-08-08T00:34:50.085Z,18.50
2022-08-08T00:37:47.822Z,18.48
2022-08-08T00:41:07.956Z,18.42
2022-08-08T00:43:40.126Z,18.43
2022-08-08T00:46:57.270Z,18.38
2022-08-08T00:49:57.744Z,18.40
2022-08-08T00:52:48.929Z,18.40
2022-08-08T00:56:11.302Z,18.35
2022-08-08T00:59:43.814Z,18.32
2022-08-08T01:03:54.097Z,18.28
2022-08-08T01:06:02.488Z,18.24
2022-08-08T01:08:57.502Z,18.22
2022-08-08T01:12:10.673Z,18.19
2022-08-08T01:14:58.038Z,18.16
2022-08-08T01:17:54.822Z,18.14
2022-08-08T01:21:02.925Z,18.13
2022-08-08T01:24:13.743Z,18.14
2022-08-08T01:27:10.843Z,18.10
2022-08-08T01:30:04.179Z,18.07
2022-08-08T01:33:24.068Z,18.06
2022-08-08T01:36:32.161Z,18.04
2022-08-08T01:39:23.537Z,18.04
2022-08-08T01:42:02.830Z,17.99
2022-08-08T01:44:59.258Z,18.00
2022-08-08T01:48:16.899Z,17.97
2022-08-08T01:50:54.155Z,17.99
2022-08-08T01:55:26.745Z,17.93
2022-08-08T01:56:34.518Z,17.91
2022-08-08T01:59:18.879Z,17.89
2022-08-08T02:02:03.174Z,17.87
2022-08-08T02:04:43.304Z,17.85
2022-08-08T02:07:19.856Z,17.83
2022-08-08T02:10:11.435Z,17.79
2022-08-08T02:12:51.170Z,17.76
2022-08-08T02:15:30.902Z,17.71
2022-08-08T02:18:11.197Z,17.64
2022-08-08T02:21:12.957Z,17.59
2022-08-08T02:23:46.203Z,17.56
2022-08-08T02:26:19.577Z,17.50
2022-08-08T02:29:02.212Z,17.49
2022-08-08T02:31:59.150Z,17.46
2022-08-08T02:35:08.617Z,17.44
2022-08-08T02:37:52.611Z,17.39
2022-08-08T02:40:34.794Z,17.41
2022-08-08T02:46:29.490Z,17.37
2022-08-08T02:49:27.665Z,17.36
2022-08-08T02:52:34.657Z,17.32
2022-08-08T02:55:19.787Z,17.33
2022-08-08T02:58:33.360Z,17.32
2022-08-08T03:01:39.685Z,17.28
2022-08-08T03:05:55.796Z,17.22
2022-08-08T03:08:58.108Z,17.18
2022-08-08T03:12:15.383Z,17.14
2022-08-08T03:16:01.151Z,17.10
2022-08-08T03:17:59.945Z,17.06
2022-08-08T03:20:51.563Z,17.01
2022-08-08T03:23:40.094Z,16.92
2022-08-08T03:26:23.883Z,16.86
2022-08-08T03:29:20.837Z,16.78
2022-08-08T03:32:28.990Z,16.64
2022-08-08T03:34:58.734Z,16.61
2022-08-08T03:37:59.327Z,16.57
2022-08-08T03:40:29.359Z,16.53
2022-08-08T03:43:16.504Z,16.51
2022-08-08T03:46:05.169Z,16.50
2022-08-08T03:49:30.074Z,16.48
2022-08-08T03:51:40.480Z,16.41
2022-08-08T03:54:41.399Z,16.37
2022-08-08T03:58:33.349Z,16.27
2022-08-08T04:00:07.804Z,16.22
2022-08-08T04:02:51.542Z,16.15
2022-08-08T04:05:28.062Z,16.16
2022-08-08T04:08:01.431Z,16.04
2022-08-08T04:10:32.889Z,16.04
2022-08-08T04:13:17.347Z,15.99
2022-08-08T04:15:54.905Z,16.00
2022-08-08T04:18:44.557Z,15.91
2022-08-08T04:21:23.355Z,15.98
2022-08-08T04:24:05.272Z,15.93
2022-08-08T04:26:57.537Z,15.93
2022-08-08T04:29:55.350Z,15.93
2022-08-08T04:32:30.406Z,15.86
2022-08-08T04:35:01.215Z,15.76
2022-08-08T04:37:34.799Z,15.70
2022-08-08T04:40:12.748Z,15.74
2022-08-08T04:42:56.875Z,15.73
2022-08-08T04:45:47.601Z,15.71
2022-08-08T04:48:21.982Z,15.70
2022-08-08T04:50:50.962Z,15.64
2022-08-08T04:54:36.047Z,15.68
2022-08-08T04:56:14.536Z,15.71
2022-08-08T04:58:42.674Z,15.74
2022-08-08T05:01:16.144Z,15.78
2022-08-08T05:04:08.171Z,15.75
2022-08-08T05:06:42.279Z,15.77
2022-08-08T05:09:12.139Z,15.79
2022-08-08T05:11:47.648Z,15.81
2022-08-08T05:14:25.437Z,15.84
2022-08-08T05:17:01.188Z,15.86
2022-08-08T05:20:09.196Z,15.85
2022-08-08T05:22:36.256Z,15.89
2022-08-08T05:25:05.674Z,15.92
2022-08-08T05:27:41.423Z,15.95
2022-08-08T05:30:11.928Z,15.98
2022-08-08T05:32:47.546Z,15.97
2022-08-08T05:35:23.729Z,15.98
2022-08-08T05:37:58.860Z,16.02
2022-08-08T05:40:46.074Z,16.09
2022-08-08T05:43:39.595Z,16.10
2022-08-08T05:46:14.623Z,16.11
2022-08-08T05:48:52.414Z,16.16
2022-08-08T05:51:48.234Z,16.21
2022-08-08T05:54:27.677Z,16.27
2022-08-08T05:57:15.848Z,16.29
2022-08-08T05:59:59.730Z,16.33
2022-08-08T06:03:02.816Z,16.34
2022-08-08T06:05:36.343Z,16.33
2022-08-08T06:08:28.721Z,16.38
2022-08-08T06:11:04.717Z,16.43
2022-08-08T06:13:35.737Z,16.47
2022-08-08T06:16:12.745Z,16.52
2022-08-08T06:19:15.901Z,16.59
2022-08-08T06:21:56.759Z,16.64
2022-08-08T06:24:50.928Z,16.70
2022-08-08T06:27:23.210Z,16.75
2022-08-08T06:30:00.767Z,16.78
2022-08-08T06:32:47.681Z,16.82
2022-08-08T06:36:07.128Z,16.86
2022-08-08T06:38:14.709Z,16.93
2022-08-08T06:40:53.840Z,16.97
2022-08-08T06:43:30.760Z,17.01
2022-08-08T06:46:08.691Z,17.08
2022-08-08T06:48:39.155Z,17.14
2022-08-08T06:51:08.753Z,17.20
2022-08-08T06:53:51.233Z,17.28
2022-08-08T06:56:31.061Z,17.33
2022-08-08T06:59:00.168Z,17.40
2022-08-08T07:02:24.378Z,17.44
2022-08-08T07:04:47.863Z,17.50
2022-08-08T07:07:25.418Z,17.58
2022-08-08T07:10:03.936Z,17.62
2022-08-08T07:12:47.956Z,17.70
2022-08-08T07:15:41.204Z,17.81
2022-08-08T07:18:36.848Z,17.85
2022-08-08T07:21:19.171Z,17.95
2022-08-08T07:24:03.830Z,18.07
2022-08-08T07:26:53.072Z,18.09
2022-08-08T07:30:02.048Z,18.21
2022-08-08T07:32:15.914Z,18.25
2022-08-08T07:34:59.331Z,18.33
2022-08-08T07:37:56.255Z,18.45
2022-08-08T07:40:29.538Z,18.53
2022-08-08T07:43:09.421Z,18.63
2022-08-08T07:46:05.187Z,18.72
2022-08-08T07:48:32.720Z,18.77
2022-08-08T07:51:02.671Z,18.84
2022-08-08T07:54:00.793Z,18.95
2022-08-08T07:56:38.385Z,19.06
2022-08-08T07:59:15.033Z,19.11
2022-08-08T08:02:34.864Z,19.16
2022-08-08T08:04:49.124Z,19.22
2022-08-08T08:07:31.769Z,19.31
2022-08-08T08:10:03.053Z,19.33
2022-08-08T08:12:41.377Z,19.41
2022-08-08T08:15:17.082Z,19.55
2022-08-08T08:17:49.168Z,19.63
2022-08-08T08:20:30.229Z,19.67
2022-08-08T08:23:02.016Z,19.72
2022-08-08T08:25:40.928Z,19.74
2022-08-08T08:28:21.280Z,19.80
2022-08-08T08:30:58.509Z,19.81
2022-08-08T08:33:28.655Z,19.86
2022-08-08T08:36:17.673Z,19.92
2022-08-08T08:38:49.256Z,20.00
2022-08-08T08:41:22.218Z,20.07
2022-08-08T08:44:14.352Z,20.14
2022-08-08T08:46:47.452Z,20.19
2022-08-08T08:49:29.567Z,20.22
2022-08-08T08:52:04.453Z,20.35
2022-08-08T08:54:35.912Z,20.40
2022-08-08T08:57:15.667Z,20.51
2022-08-08T08:59:58.966Z,20.55
2022-08-08T09:02:31.956Z,20.62
2022-08-08T09:05:04.336Z,20.69
2022-08-08T09:07:39.224Z,20.69
2022-08-08T09:10:21.840Z,20.76
2022-08-08T09:12:50.710Z,20.85
2022-08-08T09:15:41.518Z,20.90
2022-08-08T09:18:11.075Z,20.94
2022-08-08T09:21:58.692Z,21.04
2022-08-08T09:23:33.495Z,21.13
2022-08-08T09:26:12.481Z,21.21
2022-08-08T09:28:41.660Z,21.27
2022-08-08T09:31:18.222Z,21.29
2022-08-08T09:34:14.597Z,21.38
2022-08-08T09:36:51.838Z,21.38
2022-08-08T09:39:44.008Z,21.50
2022-08-08T09:42:21.649Z,21.55
2022-08-08T09:45:03.910Z,21.63
2022-08-08T09:48:04.895Z,21.71
2022-08-08T09:50:28.073Z,21.83
2022-08-08T09:53:05.777Z,21.92
2022-08-08T09:56:05.444Z,22.03
2022-08-08T09:58:40.760Z,22.09
2022-08-08T10:01:15.363Z,22.10
2022-08-08T10:04:02.500Z,22.09
2022-08-08T10:06:42.679Z,22.06
2022-08-08T10:09:13.489Z,22.02
2022-08-08T10:12:25.815Z,21.95
2022-08-08T10:14:40.054Z,22.06
2022-08-08T10:17:56.204Z,22.02
2022-08-08T10:20:04.103Z,22.15
2022-08-08T10:22:35.984Z,22.24
2022-08-08T10:25:07.317Z,22.34
2022-08-08T10:27:44.726Z,22.36
2022-08-08T10:30:16.776Z,22.46
2022-08-08T10:33:02.104Z,22.50
2022-08-08T10:36:08.190Z,22.55
2022-08-08T10:38:22.258Z,22.56
2022-08-08T10:40:53.805Z,22.59
2022-08-08T10:43:23.090Z,22.64
2022-08-08T10:45:56.169Z,22.74
2022-08-08T10:48:37.216Z,22.79
2022-08-08T10:51:21.775Z,22.69
2022-08-08T10:53:58.909Z,22.77
2022-08-08T10:56:32.232Z,22.86
2022-08-08T10:59:01.449Z,22.84
2022-08-08T11:01:33.351Z,22.94
2022-08-08T11:04:04.602Z,23.05
2022-08-08T11:06:34.902Z,23.07
2022-08-08T11:09:09.723Z,23.07
2022-08-08T11:12:06.408Z,23.17
2022-08-08T11:14:34.711Z,23.30
2022-08-08T11:17:04.329Z,23.31
2022-08-08T11:19:34.807Z,23.28
2022-08-08T11:22:04.375Z,23.25
2022-08-08T11:24:35.658Z,23.33
2022-08-08T11:27:19.530Z,23.36
2022-08-08T11:30:19.512Z,23.35
2022-08-08T11:32:42.084Z,23.57
2022-08-08T11:35:28.010Z,23.66
2022-08-08T11:38:39.618Z,23.74
2022-08-08T11:41:19.204Z,23.69
2022-08-08T11:43:48.865Z,23.76
2022-08-08T11:46:19.660Z,23.88
2022-08-08T11:48:48.100Z,23.93
2022-08-08T11:51:29.490Z,23.98
2022-08-08T11:54:27.012Z,24.13
2022-08-08T11:56:58.201Z,24.30
2022-08-08T12:00:01.705Z,24.35
2022-08-08T12:02:33.165Z,24.34
2022-08-08T12:05:03.045Z,24.29
2022-08-08T12:07:31.904Z,24.38
2022-08-08T12:10:11.563Z,24.40
2022-08-08T12:12:45.961Z,24.63
2022-08-08T12:15:27.780Z,24.74
2022-08-08T12:17:55.891Z,24.73
2022-08-08T12:20:24.269Z,24.76
2022-08-08T12:22:54.155Z,24.83
2022-08-08T12:25:29.803Z,24.98
2022-08-08T12:28:15.846Z,25.07
2022-08-08T12:30:47.857Z,24.99
2022-08-08T12:33:20.174Z,24.93
2022-08-08T12:35:51.967Z,25.12
2022-08-08T12:38:31.116Z,25.21
2022-08-08T12:41:05.791Z,25.27
2022-08-08T12:44:00.597Z,25.27
2022-08-08T12:46:29.775Z,25.36
2022-08-08T12:49:25.096Z,25.51
2022-08-08T12:51:58.457Z,25.56
2022-08-08T12:54:29.870Z,25.39
2022-08-08T12:57:02.028Z,25.49
2022-08-08T12:59:45.039Z,25.46
2022-08-08T13:03:10.967Z,25.62
2022-08-08T13:06:03.429Z,25.72
2022-08-08T13:08:53.632Z,25.70
2022-08-08T13:11:28.786Z,25.70
2022-08-08T13:14:15.919Z,25.78
2022-08-08T13:16:49.393Z,25.67
2022-08-08T13:19:20.281Z,25.65
2022-08-08T13:21:55.329Z,25.75
2022-08-08T13:24:39.353Z,25.64
2022-08-08T13:27:15.119Z,25.67
2022-08-08T13:29:52.882Z,25.81
2022-08-08T13:32:25.290Z,25.79
2022-08-08T13:34:55.848Z,25.76
2022-08-08T13:37:27.896Z,25.94
2022-08-08T13:40:17.817Z,26.27
2022-08-08T13:42:55.118Z,26.49
2022-08-08T13:45:24.274Z,26.40
2022-08-08T13:48:00.888Z,26.52
2022-08-08T13:50:38.603Z,26.64
2022-08-08T13:53:24.480Z,26.66
2022-08-08T13:56:01.255Z,26.89
2022-08-08T13:58:30.660Z,26.97
2022-08-08T14:00:59.126Z,26.95
2022-08-08T14:03:53.317Z,26.81
2022-08-08T14:06:32.511Z,26.87
2022-08-08T14:09:24.710Z,26.87
2022-08-08T14:11:50.482Z,27.04
2022-08-08T14:14:20.912Z,26.97
2022-08-08T14:16:55.249Z,27.10
2022-08-08T14:19:57.790Z,27.13
2022-08-08T14:22:24.529Z,26.95
2022-08-08T14:24:56.370Z,26.96
2022-08-08T14:27:30.834Z,27.03
2022-08-08T14:30:04.062Z,27.16
2022-08-08T14:32:47.336Z,27.15
2022-08-08T14:35:35.140Z,27.41
2022-08-08T14:38:33.111Z,27.55
2022-08-08T14:40:59.294Z,27.67
2022-08-08T14:44:01.759Z,27.81
2022-08-08T14:46:30.851Z,27.71
2022-08-08T14:49:09.414Z,28.03
2022-08-08T14:51:53.363Z,28.28
2022-08-08T14:54:29.448Z,28.26
2022-08-08T14:56:58.434Z,28.21
2022-08-08T14:59:43.887Z,28.30
2022-08-08T15:02:15.397Z,28.42
2022-08-08T15:04:45.548Z,28.47
2022-08-08T15:07:22.222Z,28.65
2022-08-08T15:09:51.377Z,28.85
2022-08-08T15:12:27.253Z,28.99
2022-08-08T15:14:56.225Z,29.07
2022-08-08T15:17:24.720Z,29.23
2022-08-08T15:19:54.833Z,29.34
2022-08-08T15:22:25.588Z,29.02
2022-08-08T15:24:54.542Z,29.14
2022-08-08T15:28:04.778Z,29.38
2022-08-08T15:30:14.530Z,29.27
2022-08-08T15:32:43.140Z,29.42
2022-08-08T15:35:12.310Z,29.54
2022-08-08T15:37:45.745Z,29.54
2022-08-08T15:40:15.252Z,29.48
2022-08-08T15:42:47.596Z,29.66
2022-08-08T15:45:18.254Z,29.84
2022-08-08T15:48:15.592Z,29.51
2022-08-08T15:50:56.981Z,29.48
2022-08-08T15:53:30.975Z,29.47
2022-08-08T15:56:12.850Z,29.35
2022-08-08T15:58:48.590Z,29.19
2022-08-08T16:01:17.332Z,29.38
2022-08-08T16:03:48.260Z,29.49
2022-08-08T16:06:28.808Z,29.48
2022-08-08T16:13:00.675Z,29.58
2022-08-08T16:13:05.464Z,29.64
2022-08-08T16:14:37.825Z,29.72
2022-08-08T16:17:06.356Z,29.69
2022-08-08T16:19:59.803Z,29.66
2022-08-08T16:22:30.308Z,29.52
2022-08-08T16:25:45.790Z,29.33
2022-08-08T16:28:33.966Z,29.31
2022-08-08T16:31:06.349Z,29.07
2022-08-08T16:33:35.990Z,29.07
2022-08-08T16:36:08.863Z,29.02
2022-08-08T16:38:44.732Z,28.85
2022-08-08T16:41:18.517Z,28.48
2022-08-08T16:43:51.422Z,28.28
2022-08-08T16:46:43.338Z,28.45
2022-08-08T16:49:09.127Z,28.43
2022-08-08T16:55:02.364Z,28.16
2022-08-08T16:55:22.898Z,27.93
2022-08-08T16:57:27.755Z,27.58
2022-08-08T17:00:09.318Z,27.73
2022-08-08T17:02:39.874Z,27.65
2022-08-08T17:05:10.228Z,27.63
2022-08-08T17:07:42.723Z,27.45
2022-08-08T17:10:11.509Z,27.13
2022-08-08T17:12:41.612Z,27.13
2022-08-08T17:15:23.180Z,26.92
2022-08-08T17:18:03.165Z,27.04
2022-08-08T17:20:32.801Z,27.03
2022-08-08T17:23:18.464Z,27.02
2022-08-08T17:25:54.739Z,26.96
2022-08-08T17:28:35.048Z,26.79
2022-08-08T17:31:39.023Z,26.60
2022-08-08T17:34:49.772Z,26.49
2022-08-08T17:36:55.521Z,26.32
2022-08-08T17:40:04.905Z,26.09
2022-08-08T17:42:18.210Z,26.22
2022-08-08T17:44:51.004Z,26.04
2022-08-08T17:47:27.430Z,25.97
2022-08-08T17:50:07.603Z,26.08
2022-08-08T17:52:37.534Z,26.12
2022-08-08T17:56:08.051Z,25.81
2022-08-08T17:57:55.975Z,25.79
2022-08-08T18:00:30.101Z,25.58
2022-08-08T18:03:09.063Z,25.68
2022-08-08T18:05:48.696Z,25.75
2022-08-08T18:08:37.691Z,25.69
2022-08-08T18:11:11.554Z,25.50
2022-08-08T18:13:43.013Z,25.47
2022-08-08T18:16:20.737Z,25.52
2022-08-08T18:18:56.095Z,25.56
2022-08-08T18:21:58.814Z,25.54
2022-08-08T18:24:19.740Z,25.40
2022-08-08T18:26:54.692Z,25.30
2022-08-08T18:29:30.142Z,25.14
2022-08-08T18:32:06.603Z,24.97
2022-08-08T18:34:35.993Z,25.04
2022-08-08T18:37:08.569Z,25.00
2022-08-08T18:39:41.213Z,24.98
2022-08-08T18:42:15.925Z,24.92
2022-08-08T18:44:54.972Z,24.91
2022-08-08T18:47:26.303Z,24.84
2022-08-08T18:49:58.914Z,24.76
2022-08-08T18:52:29.955Z,24.74
2022-08-08T18:55:09.337Z,24.64
2022-08-08T18:57:41.616Z,24.48
2022-08-08T19:00:16.682Z,24.39
2022-08-08T19:02:55.342Z,24.45
2022-08-08T19:05:30.715Z,24.25
2022-08-08T19:08:09.190Z,24.22
2022-08-08T19:10:37.693Z,24.17
2022-08-08T19:13:20.793Z,24.11
2022-08-08T19:15:55.719Z,24.08
2022-08-08T19:18:32.133Z,24.02
2022-08-08T19:21:30.074Z,24.02
2022-08-08T19:23:59.387Z,24.04
2022-08-08T19:26:30.445Z,24.05
2022-08-08T19:28:59.986Z,24.05
2022-08-08T19:31:31.915Z,24.04
2022-08-08T19:34:35.742Z,24.00
2022-08-08T19:37:47.810Z,23.94
2022-08-08T19:40:31.211Z,23.88
2022-08-08T19:43:00.973Z,23.80
2022-08-08T19:45:58.538Z,23.74
2022-08-08T19:48:29.396Z,23.66
2022-08-08T19:51:01.383Z,23.58
2022-08-08T19:53:51.614Z,23.52
2022-08-08T19:56:25.804Z,23.43
2022-08-08T19:59:07.537Z,23.33
2022-08-08T20:02:02.245Z,23.25
2022-08-08T20:04:25.114Z,23.16
2022-08-08T20:06:56.841Z,23.08
2022-08-08T20:09:25.300Z,23.01
2022-08-08T20:11:58.427Z,22.94
2022-08-08T20:14:34.385Z,22.87
2022-08-08T20:17:04.971Z,22.77
2022-08-08T20:19:34.547Z,22.71
2022-08-08T20:22:21.008Z,22.63
2022-08-08T20:25:00.374Z,22.52
2022-08-08T20:27:43.581Z,22.42
2022-08-08T20:30:35.553Z,22.34
2022-08-08T20:33:18.709Z,22.24
2022-08-08T20:35:57.211Z,22.15
2022-08-08T20:38:32.099Z,22.10
2022-08-08T20:41:12.127Z,22.00
2022-08-08T20:43:49.293Z,21.90
2022-08-08T20:46:20.663Z,21.86
2022-08-08T20:48:51.154Z,21.80
2022-08-08T20:51:20.771Z,21.70
2022-08-08T20:53:58.964Z,21.62
2022-08-08T20:56:35.319Z,21.50
2022-08-08T20:59:44.507Z,21.47
2022-08-08T21:02:25.822Z,21.37
2022-08-08T21:04:57.346Z,21.32
2022-08-08T21:08:36.185Z,21.24
2022-08-08T21:10:44.548Z,21.18
2022-08-08T21:13:12.795Z,21.13
2022-08-08T21:16:05.004Z,21.09
2022-08-08T21:18:30.493Z,21.02
2022-08-08T21:21:00.429Z,20.96
2022-08-08T21:24:02.040Z,20.85
2022-08-08T21:26:27.302Z,20.80
2022-08-08T21:28:55.843Z,20.75
2022-08-08T21:31:53.031Z,20.72
2022-08-08T21:34:18.477Z,20.64
2022-08-08T21:36:48.527Z,20.61
2022-08-08T21:39:17.808Z,20.54
2022-08-08T21:41:59.046Z,20.50
2022-08-08T21:44:27.622Z,20.44
2022-08-08T21:48:01.009Z,20.41
2022-08-08T21:49:44.286Z,20.35
2022-08-08T21:54:36.810Z,20.29
2022-08-08T21:55:04.079Z,20.22
2022-08-08T21:57:42.261Z,20.17
2022-08-08T22:00:14.216Z,20.14
2022-08-08T22:02:44.299Z,20.11
2022-08-08T22:05:14.894Z,20.06
2022-08-08T22:07:48.096Z,20.01
2022-08-08T22:10:32.026Z,20.01
2022-08-08T22:13:17.441Z,19.97
2022-08-08T22:15:59.342Z,19.92
2022-08-08T22:18:35.421Z,19.89
2022-08-08T22:21:14.172Z,19.85
2022-08-08T22:23:51.494Z,19.76
2022-08-08T22:26:29.445Z,19.73
2022-08-08T22:29:14.854Z,19.65
2022-08-08T22:32:01.950Z,19.61
2022-08-08T22:34:32.631Z,19.60
2022-08-08T22:37:00.940Z,19.58
2022-08-08T22:39:45.953Z,19.47
2022-08-08T22:42:27.399Z,19.41
2022-08-08T22:45:01.099Z,19.38
2022-08-08T22:47:30.178Z,19.30
2022-08-08T22:50:21.688Z,19.29
2022-08-08T22:54:15.619Z,19.27
2022-08-08T22:55:59.438Z,19.18
2022-08-08T22:58:33.012Z,19.14
2022-08-08T23:01:16.515Z,19.12
2022-08-08T23:03:55.202Z,19.10
2022-08-08T23:06:24.225Z,19.03
2022-08-08T23:08:55.753Z,18.86
2022-08-08T23:11:58.099Z,18.90
2022-08-08T23:14:17.443Z,18.91
2022-08-08T23:16:54.851Z,18.89
2022-08-08T23:19:32.197Z,18.85
2022-08-08T23:22:02.150Z,18.84
2022-08-08T23:24:36.194Z,18.80
2022-08-08T23:27:06.260Z,18.77
2022-08-08T23:29:34.628Z,18.75
2022-08-08T23:32:04.694Z,18.75
2022-08-08T23:34:33.829Z,18.72
2022-08-08T23:37:02.912Z,18.69
2022-08-08T23:39:41.810Z,18.65
2022-08-08T23:42:17.498Z,18.64
2022-08-08T23:44:49.438Z,18.63
2022-08-08T23:49:03.134Z,18.62
2022-08-08T23:50:08.398Z,18.53
2022-08-08T23:52:43.938Z,18.51
2022-08-08T23:55:22.322Z,18.50
2022-08-08T23:57:52.272Z,18.47
